createdAt,value
2018-04-25T00:02:25.706Z,16.37
2018-04-25T00:05:00.561Z,17.20
2018-04-25T00:07:28.755Z,18.80
2018-04-25T00:09:56.925Z,17.53
2018-04-25T00:12:25.103Z,21.80
2018-04-25T00:14:53.292Z,21.67
2018-04-25T00:17:21.461Z,21.13
2018-04-25T00:19:49.612Z,24.30
2018-04-25T00:22:17.813Z,22.00
2018-04-25T00:24:46.003Z,26.00
2018-04-25T00:27:16.182Z,26.30
2018-04-25T00:29:44.591Z,27.43
2018-04-25T00:32:12.753Z,28.57
2018-04-25T00:34:40.955Z,29.00
2018-04-25T00:37:09.139Z,30.87
2018-04-25T00:39:37.326Z,29.27
2018-04-25T00:42:06.324Z,30.27
2018-04-25T00:44:34.571Z,32.40
2018-04-25T00:47:02.657Z,29.97
2018-04-25T00:49:31.591Z,30.93
2018-04-25T00:51:59.782Z,32.97
2018-04-25T00:54:27.951Z,32.17
2018-04-25T00:56:56.115Z,32.03
2018-04-25T00:59:24.315Z,32.27
2018-04-25T01:01:52.595Z,32.23
2018-04-25T01:04:20.783Z,32.30
2018-04-25T01:06:49.739Z,30.33
2018-04-25T01:09:17.914Z,32.03
2018-04-25T01:11:46.139Z,30.40
2018-04-25T01:14:14.276Z,31.77
2018-04-25T01:16:42.491Z,30.47
2018-04-25T01:19:10.679Z,31.90
2018-04-25T01:21:38.875Z,30.90
2018-04-25T01:24:09.305Z,29.03
2018-04-25T01:26:37.497Z,31.60
2018-04-25T01:29:07.188Z,31.47
2018-04-25T01:31:56.878Z,33.53
2018-04-25T01:34:37.438Z,30.10
2018-04-25T01:37:22.971Z,33.80
2018-04-25T01:39:54.619Z,34.43
2018-04-25T01:48:56.968Z,34.20
2018-04-25T01:51:42.924Z,36.10
2018-04-25T01:54:35.933Z,37.67
2018-04-25T02:03:10.972Z,39.23
2018-04-25T02:05:39.894Z,37.97
2018-04-25T02:08:08.074Z,37.80
2018-04-25T02:10:36.233Z,38.00
2018-04-25T02:13:07.963Z,39.13
2018-04-25T02:15:36.145Z,39.67
2018-04-25T02:18:05.157Z,38.87
2018-04-25T02:20:33.324Z,41.10
2018-04-25T02:23:01.503Z,43.30
2018-04-25T02:25:29.681Z,42.47
2018-04-25T02:27:57.868Z,45.27
2018-04-25T02:30:26.027Z,44.43
2018-04-25T02:32:54.180Z,46.83
2018-04-25T02:35:22.344Z,45.80
2018-04-25T02:38:03.491Z,44.47
2018-04-25T02:40:31.955Z,47.40
2018-04-25T02:43:00.143Z,45.07
2018-04-25T02:45:29.084Z,45.10
2018-04-25T02:47:57.247Z,47.97
2018-04-25T02:50:25.398Z,48.20
2018-04-25T02:52:53.549Z,46.17
2018-04-25T02:55:52.505Z,48.07
2018-04-25T02:58:20.643Z,46.37
2018-04-25T03:00:48.807Z,47.30
2018-04-25T03:03:28.516Z,49.60
2018-04-25T03:06:09.934Z,49.87
2018-04-25T03:08:51.411Z,50.63
2018-04-25T03:11:19.571Z,48.33
2018-04-25T03:13:58.807Z,53.17
2018-04-25T03:16:37.982Z,54.00
2018-04-25T03:19:06.153Z,55.33
2018-04-25T03:21:34.304Z,51.07
2018-04-25T03:27:01.803Z,53.40
2018-04-25T03:29:30.031Z,53.70
2018-04-25T03:32:10.274Z,54.73
2018-04-25T03:35:16.589Z,55.17
2018-04-25T03:37:44.743Z,53.53
2018-04-25T03:40:12.962Z,51.93
2018-04-25T03:42:41.112Z,48.43
2018-04-25T03:48:28.702Z,50.17
2018-04-25T03:50:56.854Z,49.90
2018-04-25T03:53:25.048Z,48.07
2018-04-25T03:56:17.758Z,49.93
2018-04-25T03:58:45.997Z,45.00
2018-04-25T04:01:14.151Z,45.17
2018-04-25T04:03:42.298Z,45.30
2018-04-25T04:06:10.461Z,43.90
2018-04-25T04:08:38.620Z,41.73
2018-04-25T04:11:06.806Z,42.80
2018-04-25T04:13:34.951Z,38.27
2018-04-25T04:16:16.447Z,42.43
2018-04-25T04:18:44.610Z,38.00
2018-04-25T04:21:12.823Z,41.43
2018-04-25T04:23:41.014Z,39.53
2018-04-25T04:29:27.513Z,39.83
2018-04-25T04:31:55.844Z,41.00
2018-04-25T04:34:24.747Z,39.07
2018-04-25T04:37:18.943Z,38.70
2018-04-25T04:39:47.111Z,37.63
2018-04-25T04:42:15.324Z,36.20
2018-04-25T04:44:43.502Z,38.47
2018-04-25T04:47:12.042Z,38.40
2018-04-25T04:49:40.378Z,36.03
2018-04-25T04:52:08.563Z,36.83
2018-04-25T04:54:55.818Z,33.83
2018-04-25T04:57:23.987Z,37.00
2018-04-25T05:00:05.235Z,35.83
2018-04-25T05:02:45.670Z,34.13
2018-04-25T05:05:19.581Z,36.30
2018-04-25T05:10:58.343Z,34.20
2018-04-25T05:13:32.268Z,31.80
2018-04-25T05:16:17.453Z,33.30
2018-04-25T05:18:45.657Z,32.27
2018-04-25T05:21:13.835Z,33.37
2018-04-25T05:23:42.003Z,32.70
2018-04-25T05:26:10.289Z,33.93
2018-04-25T05:28:57.485Z,30.43
2018-04-25T05:31:25.686Z,31.60
2018-04-25T05:33:54.607Z,28.57
2018-04-25T05:36:22.748Z,31.20
2018-04-25T05:38:50.929Z,29.47
2018-04-25T05:41:21.626Z,28.43
2018-04-25T05:43:49.819Z,28.47
2018-04-25T05:46:17.975Z,26.73
2018-04-25T05:48:46.211Z,26.90
2018-04-25T05:51:14.439Z,27.47
2018-04-25T05:53:43.378Z,26.80
2018-04-25T05:56:16.262Z,27.93
2018-04-25T05:58:44.516Z,27.60
2018-04-25T06:01:12.724Z,31.33
2018-04-25T06:06:41.216Z,27.80
2018-04-25T06:09:09.456Z,28.80
2018-04-25T06:20:47.780Z,28.10
2018-04-25T06:23:15.910Z,28.07
2018-04-25T06:25:44.085Z,28.97
2018-04-25T06:28:12.260Z,25.30
2018-04-25T06:30:40.523Z,21.30
2018-04-25T06:33:08.672Z,23.60
2018-04-25T06:35:36.828Z,23.47
2018-04-25T06:38:05.776Z,25.57
2018-04-25T06:40:34.149Z,23.03
2018-04-25T06:46:13.865Z,19.30
2018-04-25T06:48:42.023Z,18.70
2018-04-25T06:51:10.246Z,22.77
2018-04-25T06:54:11.586Z,22.80
2018-04-25T06:56:44.779Z,21.73
2018-04-25T06:59:12.896Z,22.33
2018-04-25T07:08:14.268Z,21.07
2018-04-25T07:20:17.392Z,14.20
2018-04-25T07:22:45.594Z,14.73
2018-04-25T07:25:13.785Z,12.47
2018-04-25T07:27:41.975Z,10.53
2018-04-25T07:30:10.193Z,9.33
2018-04-25T07:32:38.620Z,8.40
2018-04-25T07:35:08.381Z,9.87
2018-04-25T07:37:36.631Z,5.73
2018-04-25T07:40:23.980Z,6.70
2018-04-25T07:42:52.667Z,5.70
2018-04-25T07:45:21.016Z,4.57
2018-04-25T07:47:49.224Z,4.50
2018-04-25T07:50:17.622Z,3.40
2018-04-25T07:52:45.807Z,4.13
2018-04-25T07:55:13.965Z,4.93
2018-04-25T07:57:42.267Z,3.90
2018-04-25T08:00:16.962Z,3.77
2018-04-25T08:02:45.248Z,4.00
2018-04-25T08:05:13.481Z,4.13
2018-04-25T08:14:21.947Z,4.13
2018-04-25T08:17:08.608Z,2.50
2018-04-25T08:19:54.635Z,2.90
2018-04-25T08:22:23.662Z,2.63
2018-04-25T08:24:51.807Z,3.30
2018-04-25T08:27:19.980Z,3.00
2018-04-25T08:29:49.525Z,3.40
2018-04-25T08:32:17.726Z,3.13
2018-04-25T08:34:45.888Z,3.00
2018-04-25T08:37:14.163Z,2.77
2018-04-25T08:39:42.322Z,3.07
2018-04-25T08:42:10.676Z,3.20
2018-04-25T08:44:52.299Z,3.60
2018-04-25T08:47:20.504Z,2.57
2018-04-25T08:50:12.681Z,3.07
2018-04-25T08:52:40.993Z,3.80
2018-04-25T08:55:09.231Z,3.47
2018-04-25T08:57:37.374Z,2.40
2018-04-25T09:00:11.707Z,3.10
2018-04-25T09:02:54.166Z,2.40
2018-04-25T09:05:22.313Z,3.10
2018-04-25T09:08:03.958Z,2.17
2018-04-25T09:10:32.164Z,2.63
2018-04-25T09:13:00.411Z,1.80
2018-04-25T09:15:56.556Z,1.80
2018-04-25T09:18:24.822Z,2.10
2018-04-25T09:20:52.959Z,1.97
2018-04-25T09:23:21.169Z,1.63
2018-04-25T09:25:49.327Z,1.40
2018-04-25T09:28:17.504Z,1.60
2018-04-25T09:30:45.687Z,1.63
2018-04-25T09:33:13.878Z,1.70
2018-04-25T09:35:42.195Z,1.50
2018-04-25T09:44:32.949Z,1.50
2018-04-25T09:47:05.014Z,1.77
2018-04-25T09:52:35.549Z,1.33
2018-04-25T09:55:08.524Z,1.13
2018-04-25T09:57:37.494Z,1.47
2018-04-25T10:00:05.695Z,1.63
2018-04-25T10:02:33.920Z,2.03
2018-04-25T10:10:00.608Z,3.60
2018-04-25T10:28:17.143Z,4.33
2018-04-25T10:38:03.668Z,2.77
2018-04-25T10:40:37.383Z,2.37
2018-04-25T10:49:29.470Z,1.00
2018-04-25T10:58:35.464Z,1.00
2018-04-25T11:01:05.711Z,1.13
2018-04-25T11:06:37.348Z,0.97
2018-04-25T11:09:05.754Z,1.90
2018-04-25T11:11:35.579Z,1.07
2018-04-25T11:29:44.843Z,1.13
2018-04-25T11:32:15.574Z,0.83
2018-04-25T11:34:44.409Z,0.90
2018-04-25T11:39:56.105Z,1.30
2018-04-25T11:42:24.251Z,0.50
2018-04-25T11:44:52.385Z,0.70
2018-04-25T11:47:20.598Z,0.50
2018-04-25T11:49:48.701Z,0.80
2018-04-25T11:52:17.601Z,0.87
2018-04-25T11:54:46.504Z,0.67
2018-04-25T11:57:15.390Z,0.63
2018-04-25T11:59:44.313Z,0.80
2018-04-25T12:02:12.511Z,0.60
2018-04-25T12:04:42.758Z,1.07
2018-04-25T12:07:12.658Z,0.90
2018-04-25T12:09:41.054Z,2.27
2018-04-25T12:12:10.591Z,1.00
2018-04-25T12:14:41.854Z,0.73
2018-04-25T12:17:11.416Z,1.93
2018-04-25T12:19:39.658Z,1.00
2018-04-25T12:22:07.860Z,0.57
2018-04-25T12:24:40.684Z,1.10
2018-04-25T12:27:10.625Z,1.40
2018-04-25T12:30:09.806Z,1.20
2018-04-25T12:32:37.957Z,0.90
2018-04-25T12:35:06.610Z,1.10
2018-04-25T12:37:35.574Z,0.77
2018-04-25T12:40:03.749Z,1.50
2018-04-25T12:42:32.979Z,1.20
2018-04-25T12:45:01.638Z,1.70
2018-04-25T12:47:43.671Z,1.27
2018-04-25T12:50:11.875Z,1.43
2018-04-25T12:52:40.028Z,0.90
2018-04-25T12:55:09.531Z,1.20
2018-04-25T12:57:45.768Z,1.40
2018-04-25T13:00:17.190Z,1.20
2018-04-25T13:03:00.331Z,1.70
2018-04-25T13:08:28.362Z,1.40
2018-04-25T13:10:56.741Z,1.20
2018-04-25T13:16:29.744Z,1.10
2018-04-25T13:22:19.094Z,1.60
2018-04-25T13:24:50.630Z,1.50
2018-04-25T13:27:20.111Z,1.20
2018-04-25T13:29:48.536Z,1.03
2018-04-25T13:32:35.541Z,1.63
2018-04-25T13:35:06.287Z,1.93
2018-04-25T13:37:34.616Z,1.30
2018-04-25T13:40:02.785Z,2.30
2018-04-25T13:42:54.535Z,1.13
2018-04-25T13:45:28.011Z,1.60
2018-04-25T13:58:26.538Z,1.20
2018-04-25T14:01:03.024Z,1.80
2018-04-25T14:03:41.453Z,1.30
2018-04-25T14:06:12.787Z,1.77
2018-04-25T14:08:42.158Z,1.83
2018-04-25T14:11:11.263Z,1.03
2018-04-25T14:13:48.552Z,1.13
2018-04-25T14:19:45.999Z,1.77
2018-04-25T14:27:54.982Z,1.13
2018-04-25T14:30:23.200Z,1.03
2018-04-25T14:32:58.820Z,1.00
2018-04-25T14:35:27.209Z,0.70
2018-04-25T14:37:55.364Z,0.97
2018-04-25T14:43:02.672Z,1.10
2018-04-25T14:51:09.591Z,1.10
2018-04-25T14:53:37.767Z,1.33
2018-04-25T14:59:05.801Z,1.43
2018-04-25T15:01:34.834Z,1.70
2018-04-25T15:04:03.000Z,0.87
2018-04-25T15:06:31.189Z,1.27
2018-04-25T15:08:59.365Z,1.73
2018-04-25T15:14:43.335Z,1.40
2018-04-25T15:17:11.796Z,1.00
2018-04-25T15:19:42.247Z,1.80
2018-04-25T15:25:20.298Z,1.03
2018-04-25T15:27:49.247Z,1.10
2018-04-25T15:30:39.020Z,0.77
2018-04-25T15:36:10.908Z,0.87
2018-04-25T15:39:11.510Z,1.00
2018-04-25T15:44:37.246Z,1.10
2018-04-25T15:47:12.095Z,1.10
2018-04-25T15:49:40.383Z,1.10
2018-04-25T15:52:08.619Z,1.10
2018-04-25T15:54:37.732Z,1.00
2018-04-25T15:57:05.915Z,1.20
2018-04-25T15:59:34.084Z,1.40
2018-04-25T16:02:02.248Z,0.70
2018-04-25T16:04:30.450Z,0.87
2018-04-25T16:06:58.614Z,1.37
2018-04-25T16:09:26.789Z,1.30
2018-04-25T16:11:55.015Z,1.10
2018-04-25T16:14:25.487Z,1.00
2018-04-25T16:16:53.733Z,1.33
2018-04-25T16:19:21.904Z,0.80
2018-04-25T16:21:50.111Z,1.00
2018-04-25T16:24:18.271Z,1.30
2018-04-25T16:26:46.434Z,1.50
2018-04-25T16:32:06.096Z,1.40
2018-04-25T16:34:51.427Z,0.70
2018-04-25T16:43:07.464Z,1.27
2018-04-25T16:45:35.649Z,1.17
2018-04-25T16:51:07.170Z,1.20
2018-04-25T16:53:56.515Z,1.00
2018-04-25T16:56:25.430Z,1.60
2018-04-25T16:58:53.559Z,1.47
2018-04-25T17:04:18.562Z,1.20
2018-04-25T17:06:46.717Z,1.30
2018-04-25T17:09:14.948Z,1.00
2018-04-25T17:11:43.084Z,1.20
2018-04-25T17:14:11.231Z,1.30
2018-04-25T17:16:39.459Z,1.90
2018-04-25T17:19:08.593Z,0.70
2018-04-25T17:21:36.849Z,0.97
2018-04-25T17:24:05.048Z,1.20
2018-04-25T17:26:33.257Z,1.10
2018-04-25T17:29:01.439Z,1.30
2018-04-25T17:31:29.614Z,1.20
2018-04-25T17:33:57.811Z,1.13
2018-04-25T17:36:26.831Z,1.10
2018-04-25T17:38:54.993Z,1.43
2018-04-25T17:41:23.186Z,1.40
2018-04-25T17:43:51.437Z,1.30
2018-04-25T17:46:19.584Z,1.57
2018-04-25T17:48:48.527Z,1.00
2018-04-25T17:51:19.586Z,1.37
2018-04-25T17:53:47.757Z,1.40
2018-04-25T17:56:15.959Z,1.37
2018-04-25T17:58:44.993Z,1.90
2018-04-25T18:01:13.199Z,1.50
2018-04-25T18:03:41.400Z,1.40
2018-04-25T18:06:09.679Z,1.23
2018-04-25T18:08:47.512Z,1.07
2018-04-25T18:11:15.737Z,1.10
2018-04-25T18:13:43.948Z,1.37
2018-04-25T18:16:12.118Z,1.57
2018-04-25T18:18:40.363Z,1.10
2018-04-25T18:21:09.641Z,1.60
2018-04-25T18:23:37.978Z,1.53
2018-04-25T18:26:06.190Z,1.50
2018-04-25T18:28:34.377Z,1.13
2018-04-25T18:31:08.847Z,1.03
2018-04-25T18:33:37.056Z,1.33
2018-04-25T18:59:02.226Z,1.80
2018-04-25T19:04:26.899Z,2.13
2018-04-25T19:10:15.369Z,2.40
2018-04-25T19:12:50.184Z,2.30
2018-04-25T19:15:19.764Z,3.10
2018-04-25T19:18:15.946Z,1.97
2018-04-25T19:20:48.166Z,2.17
2018-04-25T19:23:16.803Z,3.60
2018-04-25T19:25:47.822Z,2.17
2018-04-25T19:28:21.197Z,2.40
2018-04-25T19:30:49.945Z,3.13
2018-04-25T19:33:22.633Z,2.80
2018-04-25T19:35:54.217Z,4.03
2018-04-25T19:44:04.166Z,2.30
2018-04-25T19:52:43.949Z,1.97
2018-04-25T19:55:14.711Z,2.40
2018-04-25T19:57:43.368Z,2.57
2018-04-25T20:00:19.307Z,1.60
2018-04-25T20:02:59.532Z,2.53
2018-04-25T20:05:27.876Z,1.90
2018-04-25T20:07:56.159Z,2.50
2018-04-25T20:10:24.455Z,2.43
2018-04-25T20:12:52.806Z,2.63
2018-04-25T20:15:21.114Z,2.10
2018-04-25T20:17:49.366Z,2.20
2018-04-25T20:20:17.517Z,2.10
2018-04-25T20:22:46.534Z,2.30
2018-04-25T20:25:14.684Z,1.77
2018-04-25T20:27:42.851Z,1.97
2018-04-25T20:30:11.025Z,1.57
2018-04-25T20:32:39.168Z,1.60
2018-04-25T20:35:07.370Z,2.00
2018-04-25T20:37:36.341Z,1.77
2018-04-25T20:40:05.595Z,1.63
2018-04-25T20:42:33.756Z,1.40
2018-04-25T20:45:01.924Z,1.37
2018-04-25T20:47:30.514Z,1.50
2018-04-25T20:49:58.700Z,1.47
2018-04-25T20:55:06.507Z,1.63
2018-04-25T20:57:34.683Z,2.13
2018-04-25T21:00:02.917Z,2.23
2018-04-25T21:02:31.192Z,2.00
2018-04-25T21:04:59.250Z,1.70
2018-04-25T21:07:27.451Z,2.00
2018-04-25T21:09:55.595Z,2.10
2018-04-25T21:12:23.820Z,2.77
2018-04-25T21:14:51.967Z,2.40
2018-04-25T21:17:20.220Z,2.57
2018-04-25T21:19:48.321Z,2.57
2018-04-25T21:22:16.504Z,2.53
2018-04-25T21:24:44.670Z,2.07
2018-04-25T21:39:15.201Z,3.20
2018-04-25T21:47:54.597Z,3.47
2018-04-25T21:50:23.562Z,3.80
2018-04-25T21:56:15.267Z,4.73
2018-04-25T21:59:13.737Z,4.80
2018-04-25T22:01:52.635Z,4.47
2018-04-25T22:04:34.365Z,5.00
2018-04-25T22:07:02.656Z,5.50
2018-04-25T22:09:31.029Z,4.83
2018-04-25T22:11:59.302Z,5.07
2018-04-25T22:14:47.946Z,4.80
2018-04-25T22:17:39.703Z,5.17
2018-04-25T22:20:25.599Z,6.30
2018-04-25T22:22:59.592Z,5.00
2018-04-25T22:25:33.798Z,5.10
2018-04-25T22:34:15.000Z,5.50
2018-04-25T22:57:52.562Z,7.30
2018-04-25T23:06:26.870Z,7.20
2018-04-25T23:15:19.610Z,7.80
2018-04-25T23:30:06.353Z,7.43
2018-04-25T23:32:57.072Z,7.57
2018-04-25T23:35:27.961Z,8.10
2018-04-25T23:37:56.153Z,8.30
2018-04-25T23:40:24.330Z,9.30
2018-04-25T23:42:53.265Z,8.77
2018-04-25T23:54:51.281Z,9.60
